Naples, FL

8:24 AM EDT on October 20, 2014 (GMT -0400)
Golden Gate Estates | Change Station
CLOSE
Current Station
Personal Weather Station
Location: Naples, FL
Elevation: 28 ft
Nearby Weather Stations

Elev 28 ft 26.23 °N, 81.64 °W | Updated 21 minutes ago

Clear
Clear
60.3 °F
Feels Like 60.3 °F
N
0.0
Wind Variable Wind from North
Gusts 0.0 mph

Today
High -- | Low -- °F
--% Chance of Precip.
Yesterday
High -- | Low -- °F
Precip. -- in
7:28 AM 6:54 PM
Waning Crescent, 11% visible
Pressure 30.00 in
Visibility 9.0 miles
Clouds Clear
Dew Point 60 °F
Humidity 99%
Rainfall 0.00 in
Snow Depth Not available.
UV 0 out of 12
Pollen 3.60 out of 12
Air Quality Not available.
Flu Activity Local Activity
METAR KAPF 201153Z AUTO 05004KT 9SM CLR 20/19 A3000 RMK AO2 SLP158 T02000189 10211 20194

More Conditions Fewer Conditions

Pressure 30.00 in
Visibility 9.0 miles
Clouds Clear
Dew Point 60 °F
Humidity 99%
Rainfall 0.00 in
Snow Depth Not available.
UV 0 out of 12
Pollen 3.60 out of 12
Air Quality Not available.
Flu Activity Local Activity
METAR KAPF 201153Z AUTO 05004KT 9SM CLR 20/19 A3000 RMK AO2 SLP158 T02000189 10211 20194

More Conditions Fewer Conditions

10-Day Weather Forecast

Almanac

Astronomy

Oct. 20, 2014 Rise Set
Actual Time 7:28 AM EDT 6:54 PM EDT
Civil Twilight 7:05 AM EDT 7:17 PM EDT
Nautical Twilight 6:38 AM EDT 7:44 PM EDT
Astronomical Twilight 6:11 AM EDT 8:11 PM EDT
Moon 4:33 AM EDT 5:01 PM EDT
Length of Visible Light 12h 12m
Length of Day
11h 25m
Waning Crescent, 11% of the Moon is Illuminated
Today
Waning Crescent
Oct 23
New
Oct 30
First Quarter
Nov 6
Full
Nov 14
Last Quarter

Today's Extremes

State Highs State Lows

Community

WunderPhotos

Upload Photos

1,763,349 photos uploaded!

WunderBlogs® & News

Nearby

Snow Depth

Station Depth Elevation
No new snow has been reported.

Earthquake Activity

City Distance Mag. Time & Date
No recent earthquake activity has been reported nearby.
Minimum magnitude displayed is 2.5.

Coastal Water Temperatures

Place Temperature
Naples, FL 82.9 °F

Nearby Weather Stations